»·PEaware :: N7GL KSMX-KLAS

N7GL :: KSMX-KLAS

FLIGHT INFORMATION

Flight Status: Arrived
Operator: Privately registered:
United States
More flights under this callsign
Pilot: Anonymous 17564 (17564)
Aircraft: GATES LEARJET LEARJET 25
(LJ25)
More flights by this aircraft type
Origin: KSMX Santa Maria Pub/Capt Hancock
United States
Destination: KLAS McCarran Intl
United States
More flights between these airports :: More routes between these airports
Route: +BUELT4 RZS PMD MISEN KEPEC6
File this flight plan on PilotEdge
Remarks:
Altitude:
(Current/Filed)
21,000ft
Speed:
(Current/Filed)
340kts
Departed: 06-Jan-18 06:01 PM
Arrived: 06-Jan-18 07:05 PM
Distance/Time
Traveled:
270nm/1:04
Distance/Time
To Go:
Arrived

Flight Plot

Page will automatically refresh every two minutes.

Flight plan parsing failed; only flown route is shown


Map Options




Map Legend


Flown Route
Filed Route
Departure Airport
Arrival Airport
Navaid (VOR, NDB)
Fix

Horizontal Profiles

Position Reports

Time Latitude Longitude Heading Altitude Ground
Speed
06-Jan-18 17:34 34.899702 -120.450526 303 227ft 0kts
06-Jan-18 17:35 34.899702 -120.450526 303 227ft 0kts
06-Jan-18 17:36 34.899702 -120.450526 303 227ft 0kts
06-Jan-18 17:37 34.899702 -120.450526 303 227ft 0kts
06-Jan-18 17:38 34.899702 -120.450526 303 227ft 0kts
06-Jan-18 17:39 34.899702 -120.450526 303 227ft 0kts
06-Jan-18 17:40 34.899702 -120.450526 303 227ft 0kts
06-Jan-18 17:41 34.899702 -120.450526 303 227ft 0kts
06-Jan-18 17:42 34.899702 -120.450526 303 227ft 0kts
06-Jan-18 17:43 34.899702 -120.450526 303 227ft 0kts
06-Jan-18 17:44 34.899702 -120.450526 303 227ft 0kts
06-Jan-18 17:45 34.899702 -120.450526 303 227ft 0kts
06-Jan-18 17:46 34.899702 -120.450526 303 227ft 0kts
06-Jan-18 17:47 34.899702 -120.450526 303 227ft 0kts
06-Jan-18 17:48 34.899702 -120.450526 303 227ft 0kts
06-Jan-18 17:49 34.899702 -120.450526 303 227ft 0kts
06-Jan-18 17:50 34.899702 -120.450526 303 227ft 0kts
06-Jan-18 17:51 34.899702 -120.450526 303 227ft 0kts
06-Jan-18 17:52 34.899702 -120.450526 303 227ft 0kts
06-Jan-18 17:53 34.899702 -120.450526 303 227ft 0kts
06-Jan-18 17:54 34.899702 -120.450526 303 227ft 0kts
06-Jan-18 17:55 34.899702 -120.450526 303 227ft 0kts
06-Jan-18 17:56 34.899702 -120.450526 303 227ft 0kts
06-Jan-18 17:57 34.899235 -120.451125 220 227ft 3kts
06-Jan-18 17:58 34.898480 -120.450578 136 227ft 6kts
06-Jan-18 17:59 34.896449 -120.448196 136 227ft 12kts
06-Jan-18 18:00 34.894519 -120.445901 140 227ft 6kts
06-Jan-18 18:01 34.893674 -120.445682 183 227ft 0kts
06-Jan-18 18:02 34.893673 -120.445682 183 227ft 0kts
06-Jan-18 18:03 34.893672 -120.445682 183 227ft 0kts
06-Jan-18 18:04 34.893671 -120.445683 183 227ft 0kts
06-Jan-18 18:05 34.893670 -120.445683 183 227ft 0kts
06-Jan-18 18:06 34.893107 -120.445736 189 227ft 9kts
06-Jan-18 18:07 34.908728 -120.464105 324 1830ft 171kts
06-Jan-18 18:08 34.944577 -120.429338 96 4131ft 217kts
06-Jan-18 18:09 34.894554 -120.411938 201 4963ft 220kts
06-Jan-18 18:10 34.833385 -120.419602 180 5413ft 224kts
06-Jan-18 18:11 34.760404 -120.419072 180 6941ft 267kts
06-Jan-18 18:12 34.710971 -120.353223 126 7992ft 283kts
06-Jan-18 18:13 34.657631 -120.282862 131 7995ft 284kts
06-Jan-18 18:14 34.629766 -120.194368 108 8307ft 280kts
06-Jan-18 18:15 34.602418 -120.098591 109 11075ft 372kts
06-Jan-18 18:16 34.569111 -119.980609 110 13656ft 371kts
06-Jan-18 18:17 34.534867 -119.859845 110 16260ft 385kts
06-Jan-18 18:18 34.510998 -119.731726 81 18866ft 402kts
06-Jan-18 18:19 34.523879 -119.592687 82 21127ft 448kts
06-Jan-18 18:20 34.534903 -119.442999 82 21172ft 441kts
06-Jan-18 18:21 34.545913 -119.295599 82 21180ft 440kts
06-Jan-18 18:22 34.556883 -119.147064 82 21189ft 440kts
06-Jan-18 18:23 34.567619 -118.999349 82 21210ft 440kts
06-Jan-18 18:24 34.578204 -118.851217 82 21228ft 441kts
06-Jan-18 18:25 34.588662 -118.702281 83 21239ft 442kts
06-Jan-18 18:26 34.598926 -118.553467 83 21235ft 443kts
06-Jan-18 18:27 34.609063 -118.403805 83 21215ft 444kts
06-Jan-18 18:28 34.618878 -118.256049 83 21201ft 432kts
06-Jan-18 18:29 34.628393 -118.110450 83 21210ft 434kts
06-Jan-18 18:30 34.658863 -117.970469 66 21210ft 430kts
06-Jan-18 18:31 34.698523 -117.833298 67 21187ft 431kts
06-Jan-18 18:32 34.738148 -117.695945 67 21175ft 431kts
06-Jan-18 18:33 34.777846 -117.557925 67 21174ft 431kts
06-Jan-18 18:34 34.817255 -117.420273 67 21172ft 431kts
06-Jan-18 18:35 34.856641 -117.282033 67 21164ft 431kts
06-Jan-18 18:36 34.895784 -117.143960 67 21139ft 432kts
06-Jan-18 18:37 34.934821 -117.005571 67 21120ft 432kts
06-Jan-18 18:38 34.973860 -116.866474 68 21109ft 433kts
06-Jan-18 18:39 35.012602 -116.727752 68 21105ft 433kts
06-Jan-18 18:40 35.051377 -116.588205 68 21109ft 434kts
06-Jan-18 18:41 35.089921 -116.448786 68 21112ft 434kts
06-Jan-18 18:42 35.158366 -116.333570 39 20192ft 419kts
06-Jan-18 18:43 35.239331 -116.232165 40 18691ft 412kts
06-Jan-18 18:44 35.318217 -116.132919 40 17195ft 402kts
06-Jan-18 18:45 35.395534 -116.035395 41 15694ft 394kts
06-Jan-18 18:46 35.470869 -115.940107 41 14194ft 385kts
06-Jan-18 18:47 35.544416 -115.846800 41 13046ft 376kts
06-Jan-18 18:48 35.616881 -115.754596 41 12995ft 373kts
06-Jan-18 18:49 35.688944 -115.662683 42 12994ft 373kts
06-Jan-18 18:50 35.767122 -115.582310 14 13003ft 359kts
06-Jan-18 18:51 35.863613 -115.570038 356 13002ft 348kts
06-Jan-18 18:52 35.958019 -115.543930 30 13002ft 368kts
06-Jan-18 18:53 36.011378 -115.434862 67 13001ft 381kts
06-Jan-18 18:54 36.026366 -115.307897 97 12396ft 380kts
06-Jan-18 18:55 36.017410 -115.186739 96 11466ft 334kts
06-Jan-18 18:56 36.009811 -115.073622 96 10614ft 325kts
06-Jan-18 18:57 36.003353 -114.963789 95 9916ft 317kts
06-Jan-18 18:58 35.996859 -114.856094 96 9211ft 311kts
06-Jan-18 18:59 35.990429 -114.756016 97 8485ft 281kts
06-Jan-18 19:00 35.984073 -114.660533 97 8004ft 277kts
06-Jan-18 19:01 36.022221 -114.593374 350 7983ft 244kts
06-Jan-18 19:02 36.065379 -114.638665 281 7995ft 210kts
06-Jan-18 19:03 36.075391 -114.710367 275 7993ft 214kts
06-Jan-18 19:04 36.077017 -114.772450 262 7525ft 173kts
06-Jan-18 19:05 36.073719 -114.833285 264 6770ft 181kts
06-Jan-18 19:06 36.073527 -114.896111 267 5718ft 194kts
06-Jan-18 19:07 36.073717 -114.961964 267 4688ft 183kts
06-Jan-18 19:08 36.073680 -115.021626 267 3798ft 170kts
06-Jan-18 19:09 36.073650 -115.080579 268 2881ft 173kts
06-Jan-18 19:10 36.073683 -115.135915 269 2118ft 104kts
06-Jan-18 19:11 36.074192 -115.144384 295 2118ft 0kts
06-Jan-18 19:12 36.074313 -115.144694 295 2118ft 4kts
06-Jan-18 19:13 36.074352 -115.144791 295 2118ft 0kts
06-Jan-18 19:14 36.075483 -115.146415 357 2118ft 11kts
06-Jan-18 19:15 36.078073 -115.147056 319 2118ft 4kts
06-Jan-18 19:16 36.078418 -115.145958 93 2118ft 6kts
06-Jan-18 19:17 36.078278 -115.141578 90 2118ft 14kts
06-Jan-18 19:18 36.078263 -115.137885 89 2118ft 9kts
06-Jan-18 19:19 36.078261 -115.134826 90 2118ft 19kts
06-Jan-18 19:20 36.079029 -115.130661 2 2118ft 8kts
06-Jan-18 19:21 36.080597 -115.130197 93 2118ft 2kts
06-Jan-18 19:22 36.080781 -115.129431 88 2118ft 0kts
06-Jan-18 19:23 36.080781 -115.129431 88 2118ft 0kts
06-Jan-18 19:24 36.080781 -115.129431 88 2118ft 0kts
06-Jan-18 19:25 36.080781 -115.129431 88 2118ft 0kts
06-Jan-18 19:26 36.080781 -115.129431 88 2118ft 0kts

Navigation Log

Ident Type
Flight plan parsing failed, navigation log unavailable